sensor_id;sensor_type;location;lat;lon;timestamp;temperature;humidity
19090;DHT22;9677;50.656;13.064;2023-07-31T00:01:27;19.70;50.00
19090;DHT22;9677;50.656;13.064;2023-07-31T00:03:55;19.80;50.10
19090;DHT22;9677;50.656;13.064;2023-07-31T00:06:23;19.70;50.00
19090;DHT22;9677;50.656;13.064;2023-07-31T00:08:52;19.70;50.00
19090;DHT22;9677;50.656;13.064;2023-07-31T00:11:20;19.70;50.00
19090;DHT22;9677;50.656;13.064;2023-07-31T00:13:49;19.70;50.10
19090;DHT22;9677;50.656;13.064;2023-07-31T00:16:18;19.60;50.10
19090;DHT22;9677;50.656;13.064;2023-07-31T00:18:46;19.60;50.10
19090;DHT22;9677;50.656;13.064;2023-07-31T00:21:14;19.60;50.10
19090;DHT22;9677;50.656;13.064;2023-07-31T00:23:43;19.60;50.10
19090;DHT22;9677;50.656;13.064;2023-07-31T00:26:11;19.50;50.10
19090;DHT22;9677;50.656;13.064;2023-07-31T00:28:39;19.50;50.20
19090;DHT22;9677;50.656;13.064;2023-07-31T00:31:09;19.50;50.20
19090;DHT22;9677;50.656;13.064;2023-07-31T00:33:38;19.50;50.20
19090;DHT22;9677;50.656;13.064;2023-07-31T00:36:06;19.40;50.10
19090;DHT22;9677;50.656;13.064;2023-07-31T00:38:34;19.40;50.20
19090;DHT22;9677;50.656;13.064;2023-07-31T00:41:02;19.40;50.20
19090;DHT22;9677;50.656;13.064;2023-07-31T00:43:30;19.40;50.30
19090;DHT22;9677;50.656;13.064;2023-07-31T00:45:58;19.40;50.30
19090;DHT22;9677;50.656;13.064;2023-07-31T00:48:28;19.30;50.30
19090;DHT22;9677;50.656;13.064;2023-07-31T00:50:57;19.30;50.40
19090;DHT22;9677;50.656;13.064;2023-07-31T00:53:25;19.30;50.70
19090;DHT22;9677;50.656;13.064;2023-07-31T00:55:53;19.20;50.40
19090;DHT22;9677;50.656;13.064;2023-07-31T00:58:22;19.20;50.50
19090;DHT22;9677;50.656;13.064;2023-07-31T01:00:51;19.20;50.50
19090;DHT22;9677;50.656;13.064;2023-07-31T01:03:20;19.20;50.60
19090;DHT22;9677;50.656;13.064;2023-07-31T01:05:56;19.20;50.60
19090;DHT22;9677;50.656;13.064;2023-07-31T01:08:37;19.10;50.70
19090;DHT22;9677;50.656;13.064;2023-07-31T01:11:15;19.10;50.70
19090;DHT22;9677;50.656;13.064;2023-07-31T01:13:45;19.10;50.70
19090;DHT22;9677;50.656;13.064;2023-07-31T01:16:14;19.10;50.60
19090;DHT22;9677;50.656;13.064;2023-07-31T01:18:42;19.00;50.60
19090;DHT22;9677;50.656;13.064;2023-07-31T01:21:21;19.00;50.60
19090;DHT22;9677;50.656;13.064;2023-07-31T01:27:06;19.00;50.90
19090;DHT22;9677;50.656;13.064;2023-07-31T01:29:41;18.90;50.80
19090;DHT22;9677;50.656;13.064;2023-07-31T01:32:12;18.90;50.80
19090;DHT22;9677;50.656;13.064;2023-07-31T01:34:41;18.90;50.80
19090;DHT22;9677;50.656;13.064;2023-07-31T01:37:10;18.90;50.90
19090;DHT22;9677;50.656;13.064;2023-07-31T01:39:38;18.90;50.90
19090;DHT22;9677;50.656;13.064;2023-07-31T01:42:08;18.90;51.00
19090;DHT22;9677;50.656;13.064;2023-07-31T01:44:36;18.80;51.00
19090;DHT22;9677;50.656;13.064;2023-07-31T01:47:05;18.90;51.00
19090;DHT22;9677;50.656;13.064;2023-07-31T01:49:33;18.90;51.10
19090;DHT22;9677;50.656;13.064;2023-07-31T01:52:02;18.90;51.10
19090;DHT22;9677;50.656;13.064;2023-07-31T01:54:30;18.90;51.20
19090;DHT22;9677;50.656;13.064;2023-07-31T01:56:59;18.90;51.20
19090;DHT22;9677;50.656;13.064;2023-07-31T01:59:29;18.90;51.20
19090;DHT22;9677;50.656;13.064;2023-07-31T02:01:57;18.90;51.20
19090;DHT22;9677;50.656;13.064;2023-07-31T02:04:25;18.90;51.20
19090;DHT22;9677;50.656;13.064;2023-07-31T02:06:53;18.90;51.20
19090;DHT22;9677;50.656;13.064;2023-07-31T02:09:21;19.00;51.30
19090;DHT22;9677;50.656;13.064;2023-07-31T02:11:50;19.00;51.20
19090;DHT22;9677;50.656;13.064;2023-07-31T02:14:18;19.00;51.20
19090;DHT22;9677;50.656;13.064;2023-07-31T02:16:47;19.10;51.30
19090;DHT22;9677;50.656;13.064;2023-07-31T02:19:16;19.00;51.30
19090;DHT22;9677;50.656;13.064;2023-07-31T02:21:44;19.10;51.30
19090;DHT22;9677;50.656;13.064;2023-07-31T02:24:12;19.10;51.30
19090;DHT22;9677;50.656;13.064;2023-07-31T02:26:40;19.10;51.30
19090;DHT22;9677;50.656;13.064;2023-07-31T02:29:09;19.10;51.30
19090;DHT22;9677;50.656;13.064;2023-07-31T02:31:37;19.10;51.30
19090;DHT22;9677;50.656;13.064;2023-07-31T02:34:07;19.20;51.30
19090;DHT22;9677;50.656;13.064;2023-07-31T02:36:35;19.20;51.40
19090;DHT22;9677;50.656;13.064;2023-07-31T02:39:04;19.20;52.00
19090;DHT22;9677;50.656;13.064;2023-07-31T02:41:32;19.20;51.40
19090;DHT22;9677;50.656;13.064;2023-07-31T02:44:01;19.20;51.40
19090;DHT22;9677;50.656;13.064;2023-07-31T02:46:29;19.30;51.50
19090;DHT22;9677;50.656;13.064;2023-07-31T02:48:58;19.30;51.50
19090;DHT22;9677;50.656;13.064;2023-07-31T02:51:27;19.30;51.50
19090;DHT22;9677;50.656;13.064;2023-07-31T02:53:56;19.30;51.50
19090;DHT22;9677;50.656;13.064;2023-07-31T02:56:24;19.30;51.50
19090;DHT22;9677;50.656;13.064;2023-07-31T02:58:52;19.40;51.60
19090;DHT22;9677;50.656;13.064;2023-07-31T03:01:20;19.40;51.60
19090;DHT22;9677;50.656;13.064;2023-07-31T03:03:48;19.40;51.60
19090;DHT22;9677;50.656;13.064;2023-07-31T03:06:16;19.40;51.60
19090;DHT22;9677;50.656;13.064;2023-07-31T03:08:45;19.40;51.60
19090;DHT22;9677;50.656;13.064;2023-07-31T03:11:14;19.40;51.70
19090;DHT22;9677;50.656;13.064;2023-07-31T03:13:42;19.50;51.80
19090;DHT22;9677;50.656;13.064;2023-07-31T03:16:10;19.50;51.70
19090;DHT22;9677;50.656;13.064;2023-07-31T03:18:39;19.50;51.80
19090;DHT22;9677;50.656;13.064;2023-07-31T03:21:07;19.50;51.80
19090;DHT22;9677;50.656;13.064;2023-07-31T03:23:35;19.50;51.90
19090;DHT22;9677;50.656;13.064;2023-07-31T03:26:06;19.40;51.80
19090;DHT22;9677;50.656;13.064;2023-07-31T03:28:35;19.40;51.90
19090;DHT22;9677;50.656;13.064;2023-07-31T03:31:04;19.40;51.90
19090;DHT22;9677;50.656;13.064;2023-07-31T03:33:33;19.40;51.90
19090;DHT22;9677;50.656;13.064;2023-07-31T03:36:01;19.40;51.90
19090;DHT22;9677;50.656;13.064;2023-07-31T03:38:29;19.40;51.90
19090;DHT22;9677;50.656;13.064;2023-07-31T03:40:58;19.40;52.10
19090;DHT22;9677;50.656;13.064;2023-07-31T03:43:27;19.30;52.00
19090;DHT22;9677;50.656;13.064;2023-07-31T03:45:55;19.40;52.20
19090;DHT22;9677;50.656;13.064;2023-07-31T03:48:24;19.40;52.20
19090;DHT22;9677;50.656;13.064;2023-07-31T03:50:52;19.30;52.20
19090;DHT22;9677;50.656;13.064;2023-07-31T03:53:21;19.30;52.30
19090;DHT22;9677;50.656;13.064;2023-07-31T03:55:49;19.30;52.40
19090;DHT22;9677;50.656;13.064;2023-07-31T03:58:17;19.30;52.50
19090;DHT22;9677;50.656;13.064;2023-07-31T04:00:47;19.30;52.50
19090;DHT22;9677;50.656;13.064;2023-07-31T04:03:15;19.30;52.60
19090;DHT22;9677;50.656;13.064;2023-07-31T04:05:44;19.30;52.60
19090;DHT22;9677;50.656;13.064;2023-07-31T04:08:12;19.30;52.70
19090;DHT22;9677;50.656;13.064;2023-07-31T04:10:40;19.30;52.70
19090;DHT22;9677;50.656;13.064;2023-07-31T04:13:09;19.30;52.80
19090;DHT22;9677;50.656;13.064;2023-07-31T04:15:37;19.30;53.50
19090;DHT22;9677;50.656;13.064;2023-07-31T04:18:06;19.30;52.90
19090;DHT22;9677;50.656;13.064;2023-07-31T04:20:34;19.30;53.00
19090;DHT22;9677;50.656;13.064;2023-07-31T04:23:03;19.30;53.00
19090;DHT22;9677;50.656;13.064;2023-07-31T04:25:31;19.30;53.00
19090;DHT22;9677;50.656;13.064;2023-07-31T04:28:01;19.20;53.10
19090;DHT22;9677;50.656;13.064;2023-07-31T04:30:29;19.30;53.10
19090;DHT22;9677;50.656;13.064;2023-07-31T04:32:57;19.40;53.10
19090;DHT22;9677;50.656;13.064;2023-07-31T04:35:28;19.30;53.20
19090;DHT22;9677;50.656;13.064;2023-07-31T04:37:56;19.30;53.30
19090;DHT22;9677;50.656;13.064;2023-07-31T04:40:25;19.20;53.30
19090;DHT22;9677;50.656;13.064;2023-07-31T04:42:53;19.30;53.40
19090;DHT22;9677;50.656;13.064;2023-07-31T04:45:21;19.20;53.30
19090;DHT22;9677;50.656;13.064;2023-07-31T04:47:49;19.30;53.40
19090;DHT22;9677;50.656;13.064;2023-07-31T04:50:18;19.30;53.40
19090;DHT22;9677;50.656;13.064;2023-07-31T04:52:47;19.30;53.50
19090;DHT22;9677;50.656;13.064;2023-07-31T04:55:15;19.30;53.60
19090;DHT22;9677;50.656;13.064;2023-07-31T04:57:43;19.30;53.70
19090;DHT22;9677;50.656;13.064;2023-07-31T05:00:12;19.30;53.70
19090;DHT22;9677;50.656;13.064;2023-07-31T05:02:40;19.30;53.80
19090;DHT22;9677;50.656;13.064;2023-07-31T05:05:08;19.30;53.80
19090;DHT22;9677;50.656;13.064;2023-07-31T05:07:36;19.30;53.80
19090;DHT22;9677;50.656;13.064;2023-07-31T05:10:07;19.40;54.00
19090;DHT22;9677;50.656;13.064;2023-07-31T05:12:35;19.40;54.10
19090;DHT22;9677;50.656;13.064;2023-07-31T05:15:05;19.40;54.00
19090;DHT22;9677;50.656;13.064;2023-07-31T05:17:33;19.40;54.00
19090;DHT22;9677;50.656;13.064;2023-07-31T05:20:02;19.40;54.00
19090;DHT22;9677;50.656;13.064;2023-07-31T05:22:30;19.40;54.10
19090;DHT22;9677;50.656;13.064;2023-07-31T05:24:58;19.50;54.10
19090;DHT22;9677;50.656;13.064;2023-07-31T05:27:28;19.50;54.10
19090;DHT22;9677;50.656;13.064;2023-07-31T05:29:56;19.50;54.10
19090;DHT22;9677;50.656;13.064;2023-07-31T05:32:24;19.50;54.00
19090;DHT22;9677;50.656;13.064;2023-07-31T05:34:52;19.50;54.10
19090;DHT22;9677;50.656;13.064;2023-07-31T05:37:21;19.50;54.00
19090;DHT22;9677;50.656;13.064;2023-07-31T05:39:49;19.60;54.20
19090;DHT22;9677;50.656;13.064;2023-07-31T05:42:18;19.60;54.10
19090;DHT22;9677;50.656;13.064;2023-07-31T05:44:48;19.60;54.10
19090;DHT22;9677;50.656;13.064;2023-07-31T05:47:16;19.60;54.20
19090;DHT22;9677;50.656;13.064;2023-07-31T05:49:44;19.60;54.10
19090;DHT22;9677;50.656;13.064;2023-07-31T05:52:12;19.60;54.00
19090;DHT22;9677;50.656;13.064;2023-07-31T05:54:41;19.60;54.10
19090;DHT22;9677;50.656;13.064;2023-07-31T05:57:10;19.70;54.20
19090;DHT22;9677;50.656;13.064;2023-07-31T05:59:38;19.70;54.10
19090;DHT22;9677;50.656;13.064;2023-07-31T06:02:07;19.70;54.00
19090;DHT22;9677;50.656;13.064;2023-07-31T06:04:35;19.70;54.00
19090;DHT22;9677;50.656;13.064;2023-07-31T06:07:04;19.70;54.00
19090;DHT22;9677;50.656;13.064;2023-07-31T06:09:33;19.80;54.10
19090;DHT22;9677;50.656;13.064;2023-07-31T06:12:02;19.70;54.00
19090;DHT22;9677;50.656;13.064;2023-07-31T06:14:30;19.80;54.10
19090;DHT22;9677;50.656;13.064;2023-07-31T06:16:58;19.80;54.00
19090;DHT22;9677;50.656;13.064;2023-07-31T06:19:28;19.80;54.00
19090;DHT22;9677;50.656;13.064;2023-07-31T06:21:56;19.80;54.00
19090;DHT22;9677;50.656;13.064;2023-07-31T06:24:24;19.90;54.10
19090;DHT22;9677;50.656;13.064;2023-07-31T06:26:52;19.90;54.00
19090;DHT22;9677;50.656;13.064;2023-07-31T06:29:20;19.90;54.10
19090;DHT22;9677;50.656;13.064;2023-07-31T06:31:49;19.90;54.00
19090;DHT22;9677;50.656;13.064;2023-07-31T06:34:17;19.90;54.00
19090;DHT22;9677;50.656;13.064;2023-07-31T06:36:46;19.90;54.00
19090;DHT22;9677;50.656;13.064;2023-07-31T06:39:14;20.00;54.10
19090;DHT22;9677;50.656;13.064;2023-07-31T06:41:44;20.00;54.10
19090;DHT22;9677;50.656;13.064;2023-07-31T06:44:12;20.00;54.10
19090;DHT22;9677;50.656;13.064;2023-07-31T06:46:40;20.00;54.00
19090;DHT22;9677;50.656;13.064;2023-07-31T06:49:08;20.00;53.90
19090;DHT22;9677;50.656;13.064;2023-07-31T06:51:37;20.00;53.90
19090;DHT22;9677;50.656;13.064;2023-07-31T06:54:07;20.00;53.90
19090;DHT22;9677;50.656;13.064;2023-07-31T06:56:37;20.10;54.00
19090;DHT22;9677;50.656;13.064;2023-07-31T06:59:07;20.10;53.90
19090;DHT22;9677;50.656;13.064;2023-07-31T07:01:35;20.10;53.90
19090;DHT22;9677;50.656;13.064;2023-07-31T07:04:04;20.10;53.90
19090;DHT22;9677;50.656;13.064;2023-07-31T07:06:32;20.20;54.00
19090;DHT22;9677;50.656;13.064;2023-07-31T07:09:00;20.20;54.00
19090;DHT22;9677;50.656;13.064;2023-07-31T07:11:30;20.20;54.00
19090;DHT22;9677;50.656;13.064;2023-07-31T07:13:59;20.20;54.10
19090;DHT22;9677;50.656;13.064;2023-07-31T07:16:28;20.30;54.10
19090;DHT22;9677;50.656;13.064;2023-07-31T07:18:57;20.30;54.20
19090;DHT22;9677;50.656;13.064;2023-07-31T07:21:31;20.30;54.20
19090;DHT22;9677;50.656;13.064;2023-07-31T07:23:59;20.40;54.20
19090;DHT22;9677;50.656;13.064;2023-07-31T07:26:27;20.40;54.20
19090;DHT22;9677;50.656;13.064;2023-07-31T07:28:56;20.40;54.00
19090;DHT22;9677;50.656;13.064;2023-07-31T07:31:27;20.50;54.10
19090;DHT22;9677;50.656;13.064;2023-07-31T07:33:55;20.50;54.00
19090;DHT22;9677;50.656;13.064;2023-07-31T07:36:24;20.60;54.00
19090;DHT22;9677;50.656;13.064;2023-07-31T07:38:52;20.60;54.00
19090;DHT22;9677;50.656;13.064;2023-07-31T07:41:20;20.60;54.00
19090;DHT22;9677;50.656;13.064;2023-07-31T07:43:48;20.70;54.00
19090;DHT22;9677;50.656;13.064;2023-07-31T07:46:19;20.70;54.00
19090;DHT22;9677;50.656;13.064;2023-07-31T07:48:47;20.80;54.00
19090;DHT22;9677;50.656;13.064;2023-07-31T07:51:15;20.80;54.00
19090;DHT22;9677;50.656;13.064;2023-07-31T07:53:43;20.90;54.00
19090;DHT22;9677;50.656;13.064;2023-07-31T07:56:12;20.90;53.90
19090;DHT22;9677;50.656;13.064;2023-07-31T07:58:40;20.90;53.90
19090;DHT22;9677;50.656;13.064;2023-07-31T08:01:08;21.00;53.80
19090;DHT22;9677;50.656;13.064;2023-07-31T08:03:37;21.00;53.70
19090;DHT22;9677;50.656;13.064;2023-07-31T08:06:06;21.10;54.00
19090;DHT22;9677;50.656;13.064;2023-07-31T08:08:35;21.20;53.70
19090;DHT22;9677;50.656;13.064;2023-07-31T08:11:04;21.20;53.60
19090;DHT22;9677;50.656;13.064;2023-07-31T08:13:32;21.20;54.10
19090;DHT22;9677;50.656;13.064;2023-07-31T08:16:03;21.20;53.40
19090;DHT22;9677;50.656;13.064;2023-07-31T08:18:32;21.30;53.40
19090;DHT22;9677;50.656;13.064;2023-07-31T08:21:02;21.30;53.40
19090;DHT22;9677;50.656;13.064;2023-07-31T08:23:31;21.30;53.50
19090;DHT22;9677;50.656;13.064;2023-07-31T08:25:59;21.30;53.40
19090;DHT22;9677;50.656;13.064;2023-07-31T08:28:27;21.40;53.40
19090;DHT22;9677;50.656;13.064;2023-07-31T08:30:56;21.40;53.20
19090;DHT22;9677;50.656;13.064;2023-07-31T08:33:24;21.50;53.20
19090;DHT22;9677;50.656;13.064;2023-07-31T08:35:52;21.50;53.20
19090;DHT22;9677;50.656;13.064;2023-07-31T08:38:21;21.60;53.10
19090;DHT22;9677;50.656;13.064;2023-07-31T08:40:52;21.50;52.90
19090;DHT22;9677;50.656;13.064;2023-07-31T08:43:22;21.50;52.80
19090;DHT22;9677;50.656;13.064;2023-07-31T08:45:53;21.60;52.80
19090;DHT22;9677;50.656;13.064;2023-07-31T08:48:22;21.60;52.80
19090;DHT22;9677;50.656;13.064;2023-07-31T08:50:52;21.60;52.80
19090;DHT22;9677;50.656;13.064;2023-07-31T08:53:22;21.60;52.90
19090;DHT22;9677;50.656;13.064;2023-07-31T08:55:53;21.60;52.90
19090;DHT22;9677;50.656;13.064;2023-07-31T08:58:21;21.60;53.00
19090;DHT22;9677;50.656;13.064;2023-07-31T09:00:52;21.70;53.00
19090;DHT22;9677;50.656;13.064;2023-07-31T09:03:23;21.70;52.90
19090;DHT22;9677;50.656;13.064;2023-07-31T09:05:53;21.70;52.80
19090;DHT22;9677;50.656;13.064;2023-07-31T09:08:30;21.70;52.70
19090;DHT22;9677;50.656;13.064;2023-07-31T09:11:00;21.70;52.70
19090;DHT22;9677;50.656;13.064;2023-07-31T09:13:30;21.70;52.60
19090;DHT22;9677;50.656;13.064;2023-07-31T09:15:59;21.80;52.70
19090;DHT22;9677;50.656;13.064;2023-07-31T09:18:27;21.80;52.60
19090;DHT22;9677;50.656;13.064;2023-07-31T09:21:02;21.80;52.60
19090;DHT22;9677;50.656;13.064;2023-07-31T09:23:42;21.80;52.70
19090;DHT22;9677;50.656;13.064;2023-07-31T09:26:11;21.80;52.70
19090;DHT22;9677;50.656;13.064;2023-07-31T09:28:39;21.80;52.60
19090;DHT22;9677;50.656;13.064;2023-07-31T09:31:07;21.80;52.60
19090;DHT22;9677;50.656;13.064;2023-07-31T09:33:54;21.80;52.50
19090;DHT22;9677;50.656;13.064;2023-07-31T09:36:23;21.90;52.70
19090;DHT22;9677;50.656;13.064;2023-07-31T09:38:52;21.90;52.60
19090;DHT22;9677;50.656;13.064;2023-07-31T09:41:21;21.90;52.50
19090;DHT22;9677;50.656;13.064;2023-07-31T09:43:53;21.90;52.50
19090;DHT22;9677;50.656;13.064;2023-07-31T09:46:22;21.90;52.60
19090;DHT22;9677;50.656;13.064;2023-07-31T09:48:50;22.00;52.60
19090;DHT22;9677;50.656;13.064;2023-07-31T09:51:26;22.00;52.60
19090;DHT22;9677;50.656;13.064;2023-07-31T09:53:55;22.00;52.70
19090;DHT22;9677;50.656;13.064;2023-07-31T09:56:24;22.00;52.70
19090;DHT22;9677;50.656;13.064;2023-07-31T09:58:53;22.10;52.60
19090;DHT22;9677;50.656;13.064;2023-07-31T10:01:22;22.10;52.70
19090;DHT22;9677;50.656;13.064;2023-07-31T10:03:50;22.10;52.70
19090;DHT22;9677;50.656;13.064;2023-07-31T10:06:18;22.20;52.70
19090;DHT22;9677;50.656;13.064;2023-07-31T10:08:47;22.20;52.50
19090;DHT22;9677;50.656;13.064;2023-07-31T10:11:19;22.20;52.50
19090;DHT22;9677;50.656;13.064;2023-07-31T10:13:48;22.30;52.50
19090;DHT22;9677;50.656;13.064;2023-07-31T10:16:17;22.30;52.50
19090;DHT22;9677;50.656;13.064;2023-07-31T10:18:48;22.30;52.50
19090;DHT22;9677;50.656;13.064;2023-07-31T10:21:18;22.40;52.50
19090;DHT22;9677;50.656;13.064;2023-07-31T10:23:47;22.40;52.60
19090;DHT22;9677;50.656;13.064;2023-07-31T10:26:18;22.40;52.60
19090;DHT22;9677;50.656;13.064;2023-07-31T10:28:47;22.50;52.70
19090;DHT22;9677;50.656;13.064;2023-07-31T10:31:16;22.60;52.70
19090;DHT22;9677;50.656;13.064;2023-07-31T10:33:46;22.60;52.70
19090;DHT22;9677;50.656;13.064;2023-07-31T10:36:16;22.70;52.80
19090;DHT22;9677;50.656;13.064;2023-07-31T10:38:45;22.80;52.90
19090;DHT22;9677;50.656;13.064;2023-07-31T10:41:16;23.00;53.00
19090;DHT22;9677;50.656;13.064;2023-07-31T10:43:47;23.20;52.70
19090;DHT22;9677;50.656;13.064;2023-07-31T10:46:15;23.10;52.50
19090;DHT22;9677;50.656;13.064;2023-07-31T10:48:43;23.30;52.50
19090;DHT22;9677;50.656;13.064;2023-07-31T10:51:12;23.30;52.30
19090;DHT22;9677;50.656;13.064;2023-07-31T10:53:40;23.40;52.00
19090;DHT22;9677;50.656;13.064;2023-07-31T10:56:09;23.50;52.00
19090;DHT22;9677;50.656;13.064;2023-07-31T10:58:44;23.50;51.80
19090;DHT22;9677;50.656;13.064;2023-07-31T11:01:14;23.60;51.80
19090;DHT22;9677;50.656;13.064;2023-07-31T11:03:43;23.60;51.60
19090;DHT22;9677;50.656;13.064;2023-07-31T11:06:14;23.60;51.70
19090;DHT22;9677;50.656;13.064;2023-07-31T11:08:46;23.70;51.50
19090;DHT22;9677;50.656;13.064;2023-07-31T11:11:16;23.70;51.60
19090;DHT22;9677;50.656;13.064;2023-07-31T11:13:47;23.70;51.30
19090;DHT22;9677;50.656;13.064;2023-07-31T11:16:19;23.70;51.40
19090;DHT22;9677;50.656;13.064;2023-07-31T11:18:49;23.80;51.50
19090;DHT22;9677;50.656;13.064;2023-07-31T11:21:21;23.80;51.60
19090;DHT22;9677;50.656;13.064;2023-07-31T11:23:51;23.90;51.70
19090;DHT22;9677;50.656;13.064;2023-07-31T11:26:20;24.00;51.60
19090;DHT22;9677;50.656;13.064;2023-07-31T11:28:49;24.20;51.70
19090;DHT22;9677;50.656;13.064;2023-07-31T11:31:19;24.30;51.70
19090;DHT22;9677;50.656;13.064;2023-07-31T11:33:48;24.40;51.20
19090;DHT22;9677;50.656;13.064;2023-07-31T11:36:17;24.50;50.60
19090;DHT22;9677;50.656;13.064;2023-07-31T11:38:46;24.60;50.60
19090;DHT22;9677;50.656;13.064;2023-07-31T11:41:16;24.70;49.90
19090;DHT22;9677;50.656;13.064;2023-07-31T11:43:45;24.80;49.80
19090;DHT22;9677;50.656;13.064;2023-07-31T11:46:14;24.80;49.50
19090;DHT22;9677;50.656;13.064;2023-07-31T11:48:44;24.90;49.70
19090;DHT22;9677;50.656;13.064;2023-07-31T11:51:14;24.90;49.40
19090;DHT22;9677;50.656;13.064;2023-07-31T11:53:44;24.90;49.20
19090;DHT22;9677;50.656;13.064;2023-07-31T11:56:16;25.00;49.10
19090;DHT22;9677;50.656;13.064;2023-07-31T11:58:46;25.00;48.90
19090;DHT22;9677;50.656;13.064;2023-07-31T12:01:17;25.10;48.40
19090;DHT22;9677;50.656;13.064;2023-07-31T12:03:49;25.10;48.70
19090;DHT22;9677;50.656;13.064;2023-07-31T12:06:18;25.20;48.70
19090;DHT22;9677;50.656;13.064;2023-07-31T12:08:47;25.30;48.70
19090;DHT22;9677;50.656;13.064;2023-07-31T12:11:16;25.40;48.10
19090;DHT22;9677;50.656;13.064;2023-07-31T12:13:45;25.50;47.60
19090;DHT22;9677;50.656;13.064;2023-07-31T12:16:13;25.50;47.20
19090;DHT22;9677;50.656;13.064;2023-07-31T12:18:41;25.50;46.80
19090;DHT22;9677;50.656;13.064;2023-07-31T12:21:10;25.50;47.00
19090;DHT22;9677;50.656;13.064;2023-07-31T12:23:40;25.50;46.90
19090;DHT22;9677;50.656;13.064;2023-07-31T12:26:10;25.50;47.00
19090;DHT22;9677;50.656;13.064;2023-07-31T12:28:41;25.60;47.20
19090;DHT22;9677;50.656;13.064;2023-07-31T12:31:11;25.50;47.00
19090;DHT22;9677;50.656;13.064;2023-07-31T12:33:41;25.50;46.90
19090;DHT22;9677;50.656;13.064;2023-07-31T12:36:12;25.50;46.50
19090;DHT22;9677;50.656;13.064;2023-07-31T12:38:42;25.50;46.40
19090;DHT22;9677;50.656;13.064;2023-07-31T12:41:11;25.70;47.00
19090;DHT22;9677;50.656;13.064;2023-07-31T12:43:41;25.50;46.80
19090;DHT22;9677;50.656;13.064;2023-07-31T12:46:10;25.50;47.10
19090;DHT22;9677;50.656;13.064;2023-07-31T12:48:38;25.60;47.20
19090;DHT22;9677;50.656;13.064;2023-07-31T12:51:07;25.70;46.90
19090;DHT22;9677;50.656;13.064;2023-07-31T12:53:37;25.70;46.90
19090;DHT22;9677;50.656;13.064;2023-07-31T12:56:05;25.80;47.40
19090;DHT22;9677;50.656;13.064;2023-07-31T12:58:33;25.80;46.90
19090;DHT22;9677;50.656;13.064;2023-07-31T13:01:01;25.90;46.90
19090;DHT22;9677;50.656;13.064;2023-07-31T13:03:29;25.90;46.80
19090;DHT22;9677;50.656;13.064;2023-07-31T13:05:58;26.00;47.00
19090;DHT22;9677;50.656;13.064;2023-07-31T13:08:26;26.10;47.10
19090;DHT22;9677;50.656;13.064;2023-07-31T13:10:55;26.10;47.10
19090;DHT22;9677;50.656;13.064;2023-07-31T13:13:24;26.20;47.70
19090;DHT22;9677;50.656;13.064;2023-07-31T13:15:52;26.20;47.00
19090;DHT22;9677;50.656;13.064;2023-07-31T13:18:20;26.30;46.90
19090;DHT22;9677;50.656;13.064;2023-07-31T13:20:48;26.40;46.50
19090;DHT22;9677;50.656;13.064;2023-07-31T13:23:16;26.40;46.50
19090;DHT22;9677;50.656;13.064;2023-07-31T13:25:45;26.40;46.30
19090;DHT22;9677;50.656;13.064;2023-07-31T13:28:14;26.40;46.10
19090;DHT22;9677;50.656;13.064;2023-07-31T13:30:43;26.40;45.60
19090;DHT22;9677;50.656;13.064;2023-07-31T13:33:11;26.40;45.50
19090;DHT22;9677;50.656;13.064;2023-07-31T13:35:59;26.40;45.80
19090;DHT22;9677;50.656;13.064;2023-07-31T13:38:27;26.40;45.70
19090;DHT22;9677;50.656;13.064;2023-07-31T13:40:55;26.40;45.90
19090;DHT22;9677;50.656;13.064;2023-07-31T13:43:26;26.40;46.00
19090;DHT22;9677;50.656;13.064;2023-07-31T13:45:54;26.40;45.60
19090;DHT22;9677;50.656;13.064;2023-07-31T13:48:22;26.40;45.50
19090;DHT22;9677;50.656;13.064;2023-07-31T13:50:50;26.40;45.60
19090;DHT22;9677;50.656;13.064;2023-07-31T13:53:18;26.40;45.30
19090;DHT22;9677;50.656;13.064;2023-07-31T13:55:46;26.40;45.30
19090;DHT22;9677;50.656;13.064;2023-07-31T13:58:16;26.30;45.20
19090;DHT22;9677;50.656;13.064;2023-07-31T14:00:46;26.30;45.30
19090;DHT22;9677;50.656;13.064;2023-07-31T14:03:14;26.30;45.30
19090;DHT22;9677;50.656;13.064;2023-07-31T14:05:42;26.30;45.20
19090;DHT22;9677;50.656;13.064;2023-07-31T14:08:11;26.30;45.50
19090;DHT22;9677;50.656;13.064;2023-07-31T14:10:39;26.30;45.50
19090;DHT22;9677;50.656;13.064;2023-07-31T14:13:07;26.30;45.50
19090;DHT22;9677;50.656;13.064;2023-07-31T14:15:35;26.30;45.50
19090;DHT22;9677;50.656;13.064;2023-07-31T14:18:05;26.20;45.50
19090;DHT22;9677;50.656;13.064;2023-07-31T14:20:33;26.30;45.30
19090;DHT22;9677;50.656;13.064;2023-07-31T14:23:02;26.30;45.20
19090;DHT22;9677;50.656;13.064;2023-07-31T14:25:30;26.30;44.90
19090;DHT22;9677;50.656;13.064;2023-07-31T14:27:58;26.20;44.80
19090;DHT22;9677;50.656;13.064;2023-07-31T14:30:27;26.20;45.00
19090;DHT22;9677;50.656;13.064;2023-07-31T14:32:55;26.20;44.80
19090;DHT22;9677;50.656;13.064;2023-07-31T14:35:24;26.10;45.00
19090;DHT22;9677;50.656;13.064;2023-07-31T14:37:53;26.10;45.00
19090;DHT22;9677;50.656;13.064;2023-07-31T14:40:21;26.10;45.40
19090;DHT22;9677;50.656;13.064;2023-07-31T14:42:49;26.10;45.60
19090;DHT22;9677;50.656;13.064;2023-07-31T14:45:17;26.20;45.70
19090;DHT22;9677;50.656;13.064;2023-07-31T14:47:45;26.20;46.00
19090;DHT22;9677;50.656;13.064;2023-07-31T14:50:15;26.30;45.30
19090;DHT22;9677;50.656;13.064;2023-07-31T14:52:48;26.30;45.20
19090;DHT22;9677;50.656;13.064;2023-07-31T14:55:16;26.30;45.00
19090;DHT22;9677;50.656;13.064;2023-07-31T14:57:45;26.30;44.90
19090;DHT22;9677;50.656;13.064;2023-07-31T15:00:14;26.30;44.80
19090;DHT22;9677;50.656;13.064;2023-07-31T15:02:42;26.30;44.40
19090;DHT22;9677;50.656;13.064;2023-07-31T15:05:11;26.30;44.20
19090;DHT22;9677;50.656;13.064;2023-07-31T15:07:39;26.20;44.10
19090;DHT22;9677;50.656;13.064;2023-07-31T15:10:09;26.20;44.20
19090;DHT22;9677;50.656;13.064;2023-07-31T15:12:37;26.10;44.30
19090;DHT22;9677;50.656;13.064;2023-07-31T15:15:08;26.00;44.60
19090;DHT22;9677;50.656;13.064;2023-07-31T15:17:37;26.00;44.60
19090;DHT22;9677;50.656;13.064;2023-07-31T15:20:06;26.00;44.80
19090;DHT22;9677;50.656;13.064;2023-07-31T15:22:35;26.00;44.90
19090;DHT22;9677;50.656;13.064;2023-07-31T15:25:04;26.00;44.90
19090;DHT22;9677;50.656;13.064;2023-07-31T15:27:34;25.90;44.80
19090;DHT22;9677;50.656;13.064;2023-07-31T15:30:03;25.90;44.70
19090;DHT22;9677;50.656;13.064;2023-07-31T15:32:32;25.90;44.80
19090;DHT22;9677;50.656;13.064;2023-07-31T15:35:00;25.90;44.90
19090;DHT22;9677;50.656;13.064;2023-07-31T15:37:28;25.90;44.70
19090;DHT22;9677;50.656;13.064;2023-07-31T15:39:57;25.90;44.60
19090;DHT22;9677;50.656;13.064;2023-07-31T15:42:25;25.80;44.60
19090;DHT22;9677;50.656;13.064;2023-07-31T15:44:54;25.80;44.70